createdAt,value
2023-05-23T00:02:13.555Z,13.83
2023-05-23T00:07:16.376Z,13.91
2023-05-23T00:12:17.963Z,13.92
2023-05-23T00:17:19.777Z,13.97
2023-05-23T00:22:21.946Z,14.01
2023-05-23T00:27:23.956Z,13.92
2023-05-23T00:32:25.550Z,13.85
2023-05-23T00:37:28.307Z,13.82
2023-05-23T00:42:29.833Z,13.81
2023-05-23T00:47:32.064Z,13.83
2023-05-23T00:52:34.072Z,13.83
2023-05-23T00:57:40.411Z,13.83
2023-05-23T01:02:45.178Z,13.82
2023-05-23T01:07:47.746Z,13.78
2023-05-23T01:12:58.174Z,13.74
2023-05-23T01:18:08.544Z,13.72
2023-05-23T01:23:19.117Z,13.77
2023-05-23T01:28:26.223Z,13.74
2023-05-23T01:33:28.802Z,13.68
2023-05-23T01:38:30.723Z,13.69
2023-05-23T01:43:32.489Z,13.68
2023-05-23T01:48:35.490Z,13.72
2023-05-23T01:53:37.577Z,13.69
2023-05-23T01:58:39.396Z,13.65
2023-05-23T02:03:40.964Z,13.70
2023-05-23T02:08:43.186Z,13.69
2023-05-23T02:13:44.740Z,13.55
2023-05-23T02:18:47.317Z,13.55
2023-05-23T02:23:48.907Z,13.44
2023-05-23T02:28:51.008Z,13.42
2023-05-23T02:33:53.612Z,13.48
2023-05-23T02:38:55.246Z,13.39
2023-05-23T02:43:56.748Z,13.40
2023-05-23T02:48:58.282Z,13.41
2023-05-23T02:53:59.776Z,13.29
2023-05-23T02:59:01.323Z,13.22
2023-05-23T03:04:03.581Z,13.21
2023-05-23T03:09:05.985Z,13.22
2023-05-23T03:14:07.487Z,13.23
2023-05-23T03:19:09.067Z,13.04
2023-05-23T03:24:10.592Z,12.94
2023-05-23T03:29:12.109Z,12.94
2023-05-23T03:34:13.654Z,12.83
2023-05-23T03:39:15.345Z,12.74
2023-05-23T03:44:16.837Z,12.69
2023-05-23T03:49:18.345Z,12.74
2023-05-23T03:54:19.848Z,12.73
2023-05-23T03:59:21.428Z,12.72
2023-05-23T04:04:25.066Z,12.68
2023-05-23T04:09:26.634Z,12.64
2023-05-23T04:14:28.209Z,12.52
2023-05-23T04:19:30.894Z,12.53
2023-05-23T04:24:32.423Z,12.50
2023-05-23T04:29:35.994Z,12.48
2023-05-23T04:34:38.012Z,12.50
2023-05-23T04:39:39.739Z,12.41
2023-05-23T04:44:41.842Z,12.33
2023-05-23T04:49:43.518Z,12.33
2023-05-23T04:54:46.550Z,12.26
2023-05-23T04:59:48.257Z,12.25
2023-05-23T05:04:49.814Z,12.26
2023-05-23T05:09:51.435Z,12.22
2023-05-23T05:14:54.074Z,12.22
2023-05-23T05:19:55.886Z,12.31
2023-05-23T05:24:57.489Z,12.17
2023-05-23T05:30:04.371Z,12.28
2023-05-23T05:35:08.556Z,12.23
2023-05-23T05:40:10.226Z,12.26
2023-05-23T05:45:11.744Z,12.24
2023-05-23T05:50:13.306Z,12.08
2023-05-23T05:55:14.947Z,12.18
2023-05-23T06:00:18.945Z,12.09
2023-05-23T06:05:20.599Z,12.15
2023-05-23T06:10:22.120Z,12.32
2023-05-23T06:15:23.815Z,12.59
2023-05-23T06:20:25.781Z,12.61
2023-05-23T06:25:27.567Z,12.62
2023-05-23T06:30:29.774Z,12.60
2023-05-23T06:35:31.473Z,12.52
2023-05-23T06:40:33.005Z,12.67
2023-05-23T06:45:35.932Z,12.76
2023-05-23T06:50:37.545Z,12.96
2023-05-23T06:55:39.124Z,12.94
2023-05-23T07:00:40.910Z,13.09
2023-05-23T07:05:42.718Z,13.30
2023-05-23T07:10:44.412Z,13.36
2023-05-23T07:15:46.011Z,13.32
2023-05-23T07:20:47.536Z,13.19
2023-05-23T07:26:01.096Z,13.08
2023-05-23T07:31:03.819Z,13.18
2023-05-23T07:36:05.631Z,13.36
2023-05-23T07:41:11.996Z,13.29
2023-05-23T07:46:14.128Z,13.48
2023-05-23T07:51:15.766Z,13.70
2023-05-23T07:56:17.385Z,14.05
2023-05-23T08:01:19.231Z,13.85
2023-05-23T08:06:20.791Z,13.78
2023-05-23T08:11:22.381Z,13.75
2023-05-23T08:16:24.059Z,13.82
2023-05-23T08:21:25.877Z,13.92
2023-05-23T08:26:30.444Z,13.94
2023-05-23T08:31:33.679Z,14.03
2023-05-23T08:36:37.000Z,14.09
2023-05-23T08:41:39.445Z,13.98
2023-05-23T08:46:46.482Z,14.14
2023-05-23T08:51:52.024Z,14.42
2023-05-23T08:56:53.708Z,14.25
2023-05-23T09:01:56.935Z,14.20
2023-05-23T09:06:59.271Z,14.13
2023-05-23T09:12:01.052Z,14.49
2023-05-23T09:17:04.545Z,14.68
2023-05-23T09:22:06.560Z,14.84
2023-05-23T09:27:08.546Z,14.88
2023-05-23T09:32:13.058Z,14.76
2023-05-23T09:37:19.449Z,14.62
2023-05-23T09:42:24.109Z,14.39
2023-05-23T09:47:26.434Z,14.43
2023-05-23T09:52:28.082Z,14.64
2023-05-23T09:57:30.583Z,14.68
2023-05-23T10:03:12.886Z,15.34
2023-05-23T10:09:03.849Z,16.62
2023-05-23T10:14:09.190Z,17.85
2023-05-23T10:19:19.842Z,16.69
2023-05-23T10:24:22.337Z,15.95
2023-05-23T10:29:25.097Z,16.31
2023-05-23T10:34:38.266Z,16.64
2023-05-23T10:40:14.199Z,17.38
2023-05-23T10:45:16.975Z,16.48
2023-05-23T10:50:34.889Z,17.89
2023-05-23T10:55:37.257Z,17.02
2023-05-23T11:00:39.269Z,16.24
2023-05-23T11:05:47.937Z,15.84
2023-05-23T11:10:53.057Z,15.84
2023-05-23T11:15:55.303Z,15.72
2023-05-23T11:21:01.181Z,15.82
2023-05-23T11:26:02.734Z,15.84
2023-05-23T11:31:04.971Z,15.94
2023-05-23T11:36:07.684Z,15.93
2023-05-23T11:41:09.222Z,16.12
2023-05-23T11:46:11.148Z,15.69
2023-05-23T11:51:13.434Z,15.52
2023-05-23T11:56:15.822Z,15.50
2023-05-23T12:01:17.399Z,15.20
2023-05-23T12:06:19.780Z,15.16
2023-05-23T12:11:23.681Z,15.02
2023-05-23T12:16:25.462Z,15.19
2023-05-23T12:21:49.671Z,15.21
2023-05-23T12:27:10.256Z,15.11
2023-05-23T12:32:11.854Z,15.13
2023-05-23T12:42:18.883Z,14.97
2023-05-23T12:47:20.758Z,14.76
2023-05-23T12:52:22.415Z,14.43
2023-05-23T12:57:23.987Z,14.57
2023-05-23T13:02:25.807Z,14.33
2023-05-23T13:07:27.384Z,14.30
2023-05-23T13:12:29.775Z,14.52
2023-05-23T13:17:31.452Z,14.56
2023-05-23T13:22:33.416Z,14.48
2023-05-23T13:27:35.107Z,14.66
2023-05-23T13:32:36.681Z,14.64
2023-05-23T13:37:38.587Z,14.59
2023-05-23T13:42:40.546Z,14.33
2023-05-23T13:47:42.160Z,14.54
2023-05-23T13:52:46.508Z,14.59
2023-05-23T13:57:49.919Z,14.43
2023-05-23T14:02:51.601Z,14.40
2023-05-23T14:07:53.264Z,14.29
2023-05-23T14:12:55.242Z,14.29
2023-05-23T14:17:57.088Z,14.20
2023-05-23T14:22:58.702Z,13.92
2023-05-23T14:28:00.592Z,13.99
2023-05-23T14:33:02.219Z,14.34
2023-05-23T14:38:03.971Z,14.27
2023-05-23T14:43:05.542Z,13.85
2023-05-23T14:48:07.573Z,13.83
2023-05-23T14:53:09.185Z,13.99
2023-05-23T14:58:10.738Z,13.76
2023-05-23T15:03:12.624Z,13.69
2023-05-23T15:08:14.253Z,13.79
2023-05-23T15:13:16.131Z,13.91
2023-05-23T15:18:31.768Z,14.04
2023-05-23T15:23:39.273Z,13.95
2023-05-23T15:28:40.897Z,13.73
2023-05-23T15:33:42.453Z,13.59
2023-05-23T15:38:44.518Z,13.46
2023-05-23T15:43:46.051Z,13.42
2023-05-23T15:48:47.631Z,13.35
2023-05-23T15:54:00.674Z,13.24
2023-05-23T15:59:03.534Z,13.21
2023-05-23T16:04:05.462Z,13.28
2023-05-23T16:09:07.053Z,13.09
2023-05-23T16:14:08.714Z,13.21
2023-05-23T16:19:10.369Z,13.27
2023-05-23T16:24:14.034Z,13.24
2023-05-23T16:29:15.666Z,13.22
2023-05-23T16:34:17.183Z,13.38
2023-05-23T16:39:18.940Z,13.35
2023-05-23T16:44:20.758Z,13.25
2023-05-23T16:49:22.312Z,13.17
2023-05-23T16:54:23.888Z,13.32
2023-05-23T16:59:25.486Z,13.36
2023-05-23T17:04:27.043Z,13.32
2023-05-23T17:09:28.572Z,13.20
2023-05-23T17:14:30.198Z,13.17
2023-05-23T17:19:31.823Z,13.11
2023-05-23T17:24:33.410Z,13.13
2023-05-23T17:29:35.022Z,12.92
2023-05-23T17:34:36.618Z,12.78
2023-05-23T17:39:38.195Z,12.65
2023-05-23T17:44:40.243Z,12.66
2023-05-23T17:49:41.829Z,12.64
2023-05-23T17:54:43.410Z,12.73
2023-05-23T17:59:44.952Z,12.71
2023-05-23T18:04:46.663Z,12.57
2023-05-23T18:09:48.648Z,12.40
2023-05-23T18:14:51.857Z,12.43
2023-05-23T18:19:53.425Z,12.43
2023-05-23T18:24:55.023Z,12.31
2023-05-23T18:29:56.679Z,12.29
2023-05-23T18:34:58.375Z,12.23
2023-05-23T18:40:00.418Z,12.25
2023-05-23T18:45:02.025Z,12.26
2023-05-23T18:50:03.656Z,12.27
2023-05-23T18:55:05.904Z,12.21
2023-05-23T19:00:09.032Z,12.21
2023-05-23T19:05:11.462Z,12.19
2023-05-23T19:10:13.006Z,12.16
2023-05-23T19:15:14.997Z,12.07
2023-05-23T19:20:20.220Z,11.97
2023-05-23T19:25:21.857Z,12.04
2023-05-23T19:30:24.246Z,11.94
2023-05-23T19:35:26.008Z,11.85
2023-05-23T19:40:27.647Z,11.79
2023-05-23T19:45:29.181Z,11.79
2023-05-23T19:50:30.738Z,11.70
2023-05-23T19:55:33.122Z,11.58
2023-05-23T20:00:34.631Z,11.61
2023-05-23T20:05:36.128Z,11.59
2023-05-23T20:10:37.763Z,11.51
2023-05-23T20:15:40.285Z,11.43
2023-05-23T20:20:42.544Z,11.41
2023-05-23T20:25:44.236Z,11.39
2023-05-23T20:30:46.067Z,11.37
2023-05-23T20:35:48.439Z,11.22
2023-05-23T20:40:52.241Z,11.09
2023-05-23T20:45:54.973Z,11.04
2023-05-23T20:50:57.287Z,10.99
2023-05-23T20:55:59.109Z,10.91
2023-05-23T21:01:00.734Z,10.80
2023-05-23T21:06:02.377Z,10.76
2023-05-23T21:11:03.948Z,10.69
2023-05-23T21:16:06.085Z,10.56
2023-05-23T21:21:07.697Z,10.44
2023-05-23T21:26:09.248Z,10.29
2023-05-23T21:31:12.708Z,10.24
2023-05-23T21:36:14.377Z,10.15
2023-05-23T21:41:15.935Z,10.09
2023-05-23T21:46:19.071Z,10.08
2023-05-23T21:51:20.623Z,9.91
2023-05-23T21:56:22.177Z,9.89
2023-05-23T22:01:23.752Z,9.85
2023-05-23T22:06:25.328Z,9.78
2023-05-23T22:11:33.717Z,9.64
2023-05-23T22:16:41.623Z,9.61
2023-05-23T22:21:43.270Z,9.51
2023-05-23T22:26:44.829Z,9.42
2023-05-23T22:31:47.552Z,9.37
2023-05-23T22:36:49.190Z,9.40
2023-05-23T22:41:51.042Z,9.30
2023-05-23T22:46:52.720Z,9.15
2023-05-23T22:51:54.291Z,9.22
2023-05-23T22:56:55.976Z,9.22
2023-05-23T23:01:57.539Z,9.15
2023-05-23T23:06:59.360Z,9.13
2023-05-23T23:12:01.269Z,9.12
2023-05-23T23:17:03.375Z,9.09
2023-05-23T23:22:05.089Z,9.09
2023-05-23T23:27:06.607Z,9.05
2023-05-23T23:32:08.239Z,8.98
2023-05-23T23:37:09.871Z,8.90
2023-05-23T23:42:11.452Z,8.81
2023-05-23T23:47:13.023Z,8.77
2023-05-23T23:52:14.986Z,8.74
2023-05-23T23:57:16.537Z,8.70
